sensor_id;sensor_type;location;lat;lon;timestamp;pressure;altitude;pressure_sealevel;temperature;humidity
8280;BME280;8335;42.646;23.380;2023-04-22T00:01:31;143859.06;;;9.19;91.72
8280;BME280;8335;42.646;23.380;2023-04-22T00:03:58;143867.78;;;9.22;91.38
8280;BME280;8335;42.646;23.380;2023-04-22T00:06:26;143880.19;;;9.27;90.66
8280;BME280;8335;42.646;23.380;2023-04-22T00:08:53;143866.56;;;9.22;90.90
8280;BME280;8335;42.646;23.380;2023-04-22T00:11:20;143854.13;;;9.17;90.68
8280;BME280;8335;42.646;23.380;2023-04-22T00:13:46;143854.13;;;9.17;90.52
8280;BME280;8335;42.646;23.380;2023-04-22T00:16:13;143859.06;;;9.19;90.17
8280;BME280;8335;42.646;23.380;2023-04-22T00:18:40;143847.88;;;9.14;90.19
8280;BME280;8335;42.646;23.380;2023-04-22T00:21:07;143841.69;;;9.12;89.94
8280;BME280;8335;42.646;23.380;2023-04-22T00:23:35;143823.06;;;9.04;90.29
8280;BME280;8335;42.646;23.380;2023-04-22T00:26:02;143803.22;;;8.96;90.21
8280;BME280;8335;42.646;23.380;2023-04-22T00:28:29;143787.06;;;8.89;91.03
8280;BME280;8335;42.646;23.380;2023-04-22T00:30:55;143779.66;;;8.86;91.25
8280;BME280;8335;42.646;23.380;2023-04-22T00:33:23;143752.31;;;8.75;91.36
8280;BME280;8335;42.646;23.380;2023-04-22T00:35:50;143749.84;;;8.74;91.62
8280;BME280;8335;42.646;23.380;2023-04-22T00:38:19;143747.38;;;8.73;92.05
8280;BME280;8335;42.646;23.380;2023-04-22T00:40:47;143741.13;;;8.70;91.94
8280;BME280;8335;42.646;23.380;2023-04-22T00:43:15;143746.13;;;8.72;91.74
8280;BME280;8335;42.646;23.380;2023-04-22T00:45:42;143734.94;;;8.68;91.65
8280;BME280;8335;42.646;23.380;2023-04-22T00:48:10;143741.13;;;8.70;91.69
8280;BME280;8335;42.646;23.380;2023-04-22T00:50:38;143736.16;;;8.68;91.84
8280;BME280;8335;42.646;23.380;2023-04-22T00:53:04;143723.75;;;8.63;92.18
8280;BME280;8335;42.646;23.380;2023-04-22T00:55:31;143700.19;;;8.53;92.02
8280;BME280;8335;42.646;23.380;2023-04-22T00:58:00;143660.50;;;8.37;93.36
8280;BME280;8335;42.646;23.380;2023-04-22T01:00:28;143641.84;;;8.30;93.26
8280;BME280;8335;42.646;23.380;2023-04-22T01:02:56;143621.94;;;8.21;93.76
8280;BME280;8335;42.646;23.380;2023-04-22T01:05:23;143633.13;;;8.26;93.46
8280;BME280;8335;42.646;23.380;2023-04-22T01:07:49;143618.22;;;8.20;93.46
8280;BME280;8335;42.646;23.380;2023-04-22T01:10:17;143583.50;;;8.06;93.86
8280;BME280;8335;42.646;23.380;2023-04-22T01:12:44;143605.84;;;8.15;93.69
8280;BME280;8335;42.646;23.380;2023-04-22T01:15:12;143540.09;;;7.88;94.43
8280;BME280;8335;42.646;23.380;2023-04-22T01:17:39;143502.91;;;7.72;95.96
8280;BME280;8335;42.646;23.380;2023-04-22T01:20:06;143497.91;;;7.70;96.57
8280;BME280;8335;42.646;23.380;2023-04-22T01:22:36;143488.00;;;7.66;96.15
8280;BME280;8335;42.646;23.380;2023-04-22T01:25:08;143494.19;;;7.69;95.87
8280;BME280;8335;42.646;23.380;2023-04-22T01:27:34;143495.44;;;7.69;96.17
8280;BME280;8335;42.646;23.380;2023-04-22T01:30:02;143502.91;;;7.72;96.40
8280;BME280;8335;42.646;23.380;2023-04-22T01:32:29;143501.66;;;7.72;96.80
8280;BME280;8335;42.646;23.380;2023-04-22T01:34:56;143494.19;;;7.69;97.48
8280;BME280;8335;42.646;23.380;2023-04-22T01:37:24;143484.28;;;7.65;96.82
8280;BME280;8335;42.646;23.380;2023-04-22T01:39:51;143479.31;;;7.63;97.54
8280;BME280;8335;42.646;23.380;2023-04-22T01:42:19;143483.06;;;7.64;97.32
8280;BME280;8335;42.646;23.380;2023-04-22T01:44:46;143476.84;;;7.62;98.54
8280;BME280;8335;42.646;23.380;2023-04-22T01:47:13;143399.97;;;7.30;98.30
8280;BME280;8335;42.646;23.380;2023-04-22T01:49:39;143486.78;;;7.66;97.68
8280;BME280;8335;42.646;23.380;2023-04-22T01:52:06;143496.66;;;7.70;98.26
8280;BME280;8335;42.646;23.380;2023-04-22T01:54:34;143522.72;;;7.81;98.26
8280;BME280;8335;42.646;23.380;2023-04-22T01:57:07;143496.66;;;7.70;98.79
8280;BME280;8335;42.646;23.380;2023-04-22T01:59:36;143526.44;;;7.82;99.45
8280;BME280;8335;42.646;23.380;2023-04-22T02:02:03;143530.16;;;7.84;99.71
8280;BME280;8335;42.646;23.380;2023-04-22T02:04:30;143526.44;;;7.82;99.89
8280;BME280;8335;42.646;23.380;2023-04-22T02:06:56;143527.69;;;7.83;100.00
8280;BME280;8335;42.646;23.380;2023-04-22T02:09:23;143541.34;;;7.88;100.00
8280;BME280;8335;42.646;23.380;2023-04-22T02:11:50;143550.00;;;7.92;100.00
8280;BME280;8335;42.646;23.380;2023-04-22T02:14:17;143556.22;;;7.94;99.84
8280;BME280;8335;42.646;23.380;2023-04-22T02:16:45;143573.59;;;8.02;99.84
8280;BME280;8335;42.646;23.380;2023-04-22T02:19:11;143582.25;;;8.05;99.29
8280;BME280;8335;42.646;23.380;2023-04-22T02:21:38;143577.31;;;8.03;99.42
8280;BME280;8335;42.646;23.380;2023-04-22T02:24:05;143578.53;;;8.04;100.00
8280;BME280;8335;42.646;23.380;2023-04-22T02:26:32;143584.72;;;8.06;100.00
8280;BME280;8335;42.646;23.380;2023-04-22T02:28:59;143582.25;;;8.05;99.82
8280;BME280;8335;42.646;23.380;2023-04-22T02:31:26;143579.78;;;8.04;99.50
8280;BME280;8335;42.646;23.380;2023-04-22T02:33:54;143587.22;;;8.07;98.96
8280;BME280;8335;42.646;23.380;2023-04-22T02:36:20;143589.72;;;8.08;97.74
8280;BME280;8335;42.646;23.380;2023-04-22T02:38:48;143595.91;;;8.11;96.78
8280;BME280;8335;42.646;23.380;2023-04-22T02:41:14;143587.22;;;8.07;96.98
8280;BME280;8335;42.646;23.380;2023-04-22T02:43:41;143578.53;;;8.04;97.17
8280;BME280;8335;42.646;23.380;2023-04-22T02:46:10;143589.72;;;8.08;96.68
8280;BME280;8335;42.646;23.380;2023-04-22T02:48:37;143585.97;;;8.07;96.34
8280;BME280;8335;42.646;23.380;2023-04-22T02:51:06;143597.16;;;8.11;96.63
8280;BME280;8335;42.646;23.380;2023-04-22T02:53:32;143597.16;;;8.11;96.41
8280;BME280;8335;42.646;23.380;2023-04-22T02:55:59;143589.72;;;8.08;96.18
8280;BME280;8335;42.646;23.380;2023-04-22T02:58:26;143581.00;;;8.05;96.37
8280;BME280;8335;42.646;23.380;2023-04-22T03:00:53;143440.88;;;7.47;96.56
8280;BME280;8335;42.646;23.380;2023-04-22T03:03:21;143578.53;;;8.04;97.33
8280;BME280;8335;42.646;23.380;2023-04-22T03:05:48;143564.88;;;7.98;97.17
8280;BME280;8335;42.646;23.380;2023-04-22T03:08:16;143525.22;;;7.82;97.66
8280;BME280;8335;42.646;23.380;2023-04-22T03:10:42;143531.38;;;7.84;97.41
8280;BME280;8335;42.646;23.380;2023-04-22T03:13:09;143530.16;;;7.84;97.90
8280;BME280;8335;42.646;23.380;2023-04-22T03:15:38;143533.88;;;7.85;98.08
8280;BME280;8335;42.646;23.380;2023-04-22T03:18:05;143525.22;;;7.82;97.91
8280;BME280;8335;42.646;23.380;2023-04-22T03:20:32;143522.72;;;7.81;98.92
8280;BME280;8335;42.646;23.380;2023-04-22T03:22:59;143517.78;;;7.79;98.87
8280;BME280;8335;42.646;23.380;2023-04-22T03:25:27;143497.91;;;7.70;98.64
8280;BME280;8335;42.646;23.380;2023-04-22T03:27:54;143475.59;;;7.61;99.15
8280;BME280;8335;42.646;23.380;2023-04-22T03:30:21;143490.47;;;7.67;99.53
8280;BME280;8335;42.646;23.380;2023-04-22T03:32:48;143506.59;;;7.74;99.04
8280;BME280;8335;42.646;23.380;2023-04-22T03:35:14;143504.13;;;7.73;98.40
8280;BME280;8335;42.646;23.380;2023-04-22T03:37:41;143516.50;;;7.78;98.27
8280;BME280;8335;42.646;23.380;2023-04-22T03:40:09;143533.88;;;7.85;97.64
8280;BME280;8335;42.646;23.380;2023-04-22T03:42:37;143538.88;;;7.87;97.20
8280;BME280;8335;42.646;23.380;2023-04-22T03:45:05;143546.28;;;7.90;97.67
8280;BME280;8335;42.646;23.380;2023-04-22T03:47:32;143553.75;;;7.93;96.81
8280;BME280;8335;42.646;23.380;2023-04-22T03:49:58;143559.94;;;7.96;96.17
8280;BME280;8335;42.646;23.380;2023-04-22T03:52:25;143568.59;;;7.99;95.65
8280;BME280;8335;42.646;23.380;2023-04-22T03:54:52;143576.06;;;8.03;96.24
8280;BME280;8335;42.646;23.380;2023-04-22T03:57:18;143584.72;;;8.06;94.93
8280;BME280;8335;42.646;23.380;2023-04-22T03:59:47;143594.66;;;8.10;95.26
8280;BME280;8335;42.646;23.380;2023-04-22T04:02:13;143603.34;;;8.14;94.59
8280;BME280;8335;42.646;23.380;2023-04-22T04:04:40;143618.22;;;8.20;94.70
8280;BME280;8335;42.646;23.380;2023-04-22T04:07:07;143516.50;;;7.78;93.36
8280;BME280;8335;42.646;23.380;2023-04-22T04:09:34;143710.13;;;8.58;92.51
8280;BME280;8335;42.646;23.380;2023-04-22T04:12:00;143841.69;;;9.12;90.85
8280;BME280;8335;42.646;23.380;2023-04-22T04:14:28;144042.94;;;9.94;85.69
8280;BME280;8335;42.646;23.380;2023-04-22T04:16:56;144282.81;;;10.92;80.61
8280;BME280;8335;42.646;23.380;2023-04-22T04:19:22;144505.53;;;11.83;74.98
8280;BME280;8335;42.646;23.380;2023-04-22T04:21:49;144725.91;;;12.74;70.92
8280;BME280;8335;42.646;23.380;2023-04-22T04:24:16;144968.88;;;13.73;66.31
8280;BME280;8335;42.646;23.380;2023-04-22T04:26:43;145158.41;;;14.50;62.00
8280;BME280;8335;42.646;23.380;2023-04-22T04:29:10;145356.72;;;15.31;58.82
8280;BME280;8335;42.646;23.380;2023-04-22T04:31:37;145434.13;;;15.63;55.54
8280;BME280;8335;42.646;23.380;2023-04-22T04:34:06;145642.63;;;16.48;53.58
8280;BME280;8335;42.646;23.380;2023-04-22T04:36:32;145827.59;;;17.23;50.81
8280;BME280;8335;42.646;23.380;2023-04-22T04:38:59;145985.13;;;17.87;48.22
8280;BME280;8335;42.646;23.380;2023-04-22T04:41:26;146146.41;;;18.53;46.83
8280;BME280;8335;42.646;23.380;2023-04-22T04:43:53;146317.88;;;19.23;44.88
8280;BME280;8335;42.646;23.380;2023-04-22T04:46:20;146511.94;;;20.02;43.18
8280;BME280;8335;42.646;23.380;2023-04-22T04:48:47;146711.13;;;20.83;41.87
8280;BME280;8335;42.646;23.380;2023-04-22T04:51:17;146904.16;;;21.61;39.83
8280;BME280;8335;42.646;23.380;2023-04-22T04:53:44;147063.44;;;22.26;38.22
8280;BME280;8335;42.646;23.380;2023-04-22T04:56:10;147281.78;;;23.15;36.84
8280;BME280;8335;42.646;23.380;2023-04-22T04:58:37;147450.00;;;23.83;35.31
8280;BME280;8335;42.646;23.380;2023-04-22T05:01:04;147596.97;;;24.42;33.61
8280;BME280;8335;42.646;23.380;2023-04-22T05:03:31;147728.88;;;24.96;32.69
8280;BME280;8335;42.646;23.380;2023-04-22T05:05:58;147878.44;;;25.57;31.79
8280;BME280;8335;42.646;23.380;2023-04-22T05:08:26;147966.50;;;25.92;30.75
8280;BME280;8335;42.646;23.380;2023-04-22T05:10:53;148039.41;;;26.22;30.41
8280;BME280;8335;42.646;23.380;2023-04-22T05:13:20;148086.00;;;26.41;30.05
8280;BME280;8335;42.646;23.380;2023-04-22T05:15:47;148055.75;;;26.28;30.57
8280;BME280;8335;42.646;23.380;2023-04-22T05:18:14;147996.69;;;26.04;30.76
8280;BME280;8335;42.646;23.380;2023-04-22T05:20:40;148088.50;;;26.42;30.47
8280;BME280;8335;42.646;23.380;2023-04-22T05:23:07;148186.63;;;26.81;29.83
8280;BME280;8335;42.646;23.380;2023-04-22T05:25:35;148267.19;;;27.14;29.35
8280;BME280;8335;42.646;23.380;2023-04-22T05:28:02;148330.09;;;27.39;28.84
8280;BME280;8335;42.646;23.380;2023-04-22T05:30:29;148357.81;;;27.51;28.82
8280;BME280;8335;42.646;23.380;2023-04-22T05:32:56;148381.72;;;27.60;28.82
8280;BME280;8335;42.646;23.380;2023-04-22T05:35:23;148288.59;;;27.23;28.43
8280;BME280;8335;42.646;23.380;2023-04-22T05:37:50;148351.50;;;27.48;28.47
8280;BME280;8335;42.646;23.380;2023-04-22T05:40:16;148454.75;;;27.90;27.90
8280;BME280;8335;42.646;23.380;2023-04-22T05:42:44;148488.75;;;28.04;27.94
8280;BME280;8335;42.646;23.380;2023-04-22T05:45:11;148326.34;;;27.38;28.97
8280;BME280;8335;42.646;23.380;2023-04-22T05:47:40;148106.13;;;26.49;30.19
8280;BME280;8335;42.646;23.380;2023-04-22T05:50:07;147911.13;;;25.70;31.51
8280;BME280;8335;42.646;23.380;2023-04-22T05:52:34;147740.22;;;25.01;31.91
8280;BME280;8335;42.646;23.380;2023-04-22T05:55:01;147628.38;;;24.55;32.42
8280;BME280;8335;42.646;23.380;2023-04-22T05:57:27;147492.69;;;24.00;33.56
8280;BME280;8335;42.646;23.380;2023-04-22T05:59:55;147492.69;;;24.00;33.80
8280;BME280;8335;42.646;23.380;2023-04-22T06:02:22;147547.97;;;24.23;33.98
8280;BME280;8335;42.646;23.380;2023-04-22T06:04:49;147654.78;;;24.66;33.77
8280;BME280;8335;42.646;23.380;2023-04-22T06:07:16;147751.53;;;25.05;33.22
8280;BME280;8335;42.646;23.380;2023-04-22T06:09:42;147936.34;;;25.80;32.14
8280;BME280;8335;42.646;23.380;2023-04-22T06:12:09;148103.59;;;26.48;31.18
8280;BME280;8335;42.646;23.380;2023-04-22T06:14:36;148113.69;;;26.52;31.35
8280;BME280;8335;42.646;23.380;2023-04-22T06:17:04;148192.91;;;26.84;31.09
8280;BME280;8335;42.646;23.380;2023-04-22T06:19:31;148279.75;;;27.19;30.00
8280;BME280;8335;42.646;23.380;2023-04-22T06:21:57;148362.84;;;27.53;29.99
8280;BME280;8335;42.646;23.380;2023-04-22T06:24:24;148375.44;;;27.58;30.56
8280;BME280;8335;42.646;23.380;2023-04-22T06:26:51;148449.72;;;27.88;29.41
8280;BME280;8335;42.646;23.380;2023-04-22T06:29:18;148448.47;;;27.87;28.90
8280;BME280;8335;42.646;23.380;2023-04-22T06:31:44;148203.00;;;26.88;29.99
8280;BME280;8335;42.646;23.380;2023-04-22T06:34:12;148262.16;;;27.12;29.59
8280;BME280;8335;42.646;23.380;2023-04-22T06:36:39;148434.63;;;27.82;29.35
8280;BME280;8335;42.646;23.380;2023-04-22T06:39:06;148496.28;;;28.07;29.32
8280;BME280;8335;42.646;23.380;2023-04-22T06:41:35;148432.09;;;27.81;29.29
8280;BME280;8335;42.646;23.380;2023-04-22T06:44:02;148399.38;;;27.67;29.54
8280;BME280;8335;42.646;23.380;2023-04-22T06:46:28;148360.31;;;27.52;30.27
8280;BME280;8335;42.646;23.380;2023-04-22T06:48:55;148219.34;;;26.95;30.86
8280;BME280;8335;42.646;23.380;2023-04-22T06:51:23;148235.72;;;27.01;31.22
8280;BME280;8335;42.646;23.380;2023-04-22T06:53:50;148172.78;;;26.76;31.25
8280;BME280;8335;42.646;23.380;2023-04-22T06:56:16;148153.91;;;26.68;30.98
8280;BME280;8335;42.646;23.380;2023-04-22T06:58:43;148072.09;;;26.35;31.93
8280;BME280;8335;42.646;23.380;2023-04-22T07:01:10;148116.19;;;26.53;32.15
8280;BME280;8335;42.646;23.380;2023-04-22T07:03:37;148153.91;;;26.68;32.04
8280;BME280;8335;42.646;23.380;2023-04-22T07:06:04;148209.28;;;26.91;31.39
8280;BME280;8335;42.646;23.380;2023-04-22T07:08:32;148192.91;;;26.84;31.56
8280;BME280;8335;42.646;23.380;2023-04-22T07:10:59;148338.91;;;27.43;30.94
8280;BME280;8335;42.646;23.380;2023-04-22T07:13:25;148351.50;;;27.48;30.65
8280;BME280;8335;42.646;23.380;2023-04-22T07:15:53;148529.03;;;28.20;29.88
8280;BME280;8335;42.646;23.380;2023-04-22T07:18:20;148707.94;;;28.92;28.54
8280;BME280;8335;42.646;23.380;2023-04-22T07:20:46;148719.28;;;28.97;28.85
8280;BME280;8335;42.646;23.380;2023-04-22T07:23:13;148498.84;;;28.08;29.00
8280;BME280;8335;42.646;23.380;2023-04-22T07:25:41;148442.16;;;27.85;29.90
8280;BME280;8335;42.646;23.380;2023-04-22T07:28:08;148404.41;;;27.69;30.48
8280;BME280;8335;42.646;23.380;2023-04-22T07:30:35;148413.22;;;27.73;29.88
8280;BME280;8335;42.646;23.380;2023-04-22T07:33:02;148518.97;;;28.16;30.03
8280;BME280;8335;42.646;23.380;2023-04-22T07:35:28;148589.53;;;28.44;28.98
8280;BME280;8335;42.646;23.380;2023-04-22T07:37:56;148770.94;;;29.18;28.58
8280;BME280;8335;42.646;23.380;2023-04-22T07:40:22;148836.47;;;29.44;27.75
8280;BME280;8335;42.646;23.380;2023-04-22T07:42:50;148908.34;;;29.73;27.65
8280;BME280;8335;42.646;23.380;2023-04-22T07:45:17;148992.75;;;30.07;27.79
8280;BME280;8335;42.646;23.380;2023-04-22T07:47:44;148952.44;;;29.91;26.91
8280;BME280;8335;42.646;23.380;2023-04-22T07:50:11;148709.19;;;28.93;27.93
8280;BME280;8335;42.646;23.380;2023-04-22T07:52:38;148584.47;;;28.42;28.87
8280;BME280;8335;42.646;23.380;2023-04-22T07:55:06;148464.84;;;27.94;29.31
8280;BME280;8335;42.646;23.380;2023-04-22T07:57:33;148449.72;;;27.88;29.07
8280;BME280;8335;42.646;23.380;2023-04-22T08:00:05;148626.06;;;28.59;28.82
8280;BME280;8335;42.646;23.380;2023-04-22T08:02:32;148672.63;;;28.78;28.00
8280;BME280;8335;42.646;23.380;2023-04-22T08:04:58;148827.63;;;29.41;28.27
8280;BME280;8335;42.646;23.380;2023-04-22T08:07:25;148881.84;;;29.63;26.22
8280;BME280;8335;42.646;23.380;2023-04-22T08:09:52;148923.47;;;29.79;27.18
8280;BME280;8335;42.646;23.380;2023-04-22T08:12:20;148926.00;;;29.80;25.92
8280;BME280;8335;42.646;23.380;2023-04-22T08:14:47;148873.06;;;29.59;26.75
8280;BME280;8335;42.646;23.380;2023-04-22T08:17:16;148871.81;;;29.58;26.50
8280;BME280;8335;42.646;23.380;2023-04-22T08:19:46;148891.97;;;29.67;26.92
8280;BME280;8335;42.646;23.380;2023-04-22T08:22:13;148754.56;;;29.11;27.88
8280;BME280;8335;42.646;23.380;2023-04-22T08:24:40;148716.78;;;28.96;27.84
8280;BME280;8335;42.646;23.380;2023-04-22T08:27:07;148775.97;;;29.20;27.74
8280;BME280;8335;42.646;23.380;2023-04-22T08:29:33;148779.72;;;29.21;27.54
8280;BME280;8335;42.646;23.380;2023-04-22T08:32:02;148815.00;;;29.36;26.64
8280;BME280;8335;42.646;23.380;2023-04-22T08:34:30;148740.69;;;29.05;28.34
8280;BME280;8335;42.646;23.380;2023-04-22T08:36:56;148618.47;;;28.56;28.66
8280;BME280;8335;42.646;23.380;2023-04-22T08:39:23;148609.69;;;28.52;28.29
8280;BME280;8335;42.646;23.380;2023-04-22T08:41:50;148653.72;;;28.70;27.55
8280;BME280;8335;42.646;23.380;2023-04-22T08:44:18;148723.06;;;28.98;27.41
8280;BME280;8335;42.646;23.380;2023-04-22T08:46:45;148806.22;;;29.32;26.35
8280;BME280;8335;42.646;23.380;2023-04-22T08:49:14;148946.16;;;29.88;25.57
8280;BME280;8335;42.646;23.380;2023-04-22T08:51:43;148991.50;;;30.07;25.94
8280;BME280;8335;42.646;23.380;2023-04-22T08:54:11;148888.19;;;29.65;26.48
8280;BME280;8335;42.646;23.380;2023-04-22T08:56:40;148571.91;;;28.37;27.51
8280;BME280;8335;42.646;23.380;2023-04-22T08:59:09;148269.72;;;27.15;28.13
8280;BME280;8335;42.646;23.380;2023-04-22T09:01:37;148248.31;;;27.06;29.74
8280;BME280;8335;42.646;23.380;2023-04-22T09:04:04;148130.03;;;26.58;29.90
8280;BME280;8335;42.646;23.380;2023-04-22T09:06:32;148068.34;;;26.33;29.97
8280;BME280;8335;42.646;23.380;2023-04-22T09:09:00;148020.53;;;26.14;31.68
8280;BME280;8335;42.646;23.380;2023-04-22T09:11:28;147921.25;;;25.74;30.85
8280;BME280;8335;42.646;23.380;2023-04-22T09:13:55;147875.94;;;25.56;32.41
8280;BME280;8335;42.646;23.380;2023-04-22T09:16:21;147955.22;;;25.88;31.97
8280;BME280;8335;42.646;23.380;2023-04-22T09:18:49;148034.38;;;26.20;31.26
8280;BME280;8335;42.646;23.380;2023-04-22T09:21:16;148287.34;;;27.22;30.39
8280;BME280;8335;42.646;23.380;2023-04-22T09:23:45;148348.97;;;27.47;28.69
8280;BME280;8335;42.646;23.380;2023-04-22T09:26:14;148362.84;;;27.53;28.11
8280;BME280;8335;42.646;23.380;2023-04-22T09:28:48;148484.97;;;28.02;26.69
8280;BME280;8335;42.646;23.380;2023-04-22T09:31:15;148769.69;;;29.17;26.61
8280;BME280;8335;42.646;23.380;2023-04-22T09:33:46;148816.28;;;29.36;25.79
8280;BME280;8335;42.646;23.380;2023-04-22T09:36:14;148545.38;;;28.27;26.39
8280;BME280;8335;42.646;23.380;2023-04-22T09:38:50;148224.38;;;26.97;25.98
8280;BME280;8335;42.646;23.380;2023-04-22T09:41:25;148214.28;;;26.93;27.18
8280;BME280;8335;42.646;23.380;2023-04-22T09:43:53;148055.75;;;26.28;26.96
8280;BME280;8335;42.646;23.380;2023-04-22T09:46:21;147809.31;;;25.29;28.64
8280;BME280;8335;42.646;23.380;2023-04-22T09:48:49;147750.28;;;25.05;29.11
8280;BME280;8335;42.646;23.380;2023-04-22T09:51:16;147847.06;;;25.44;29.63
8280;BME280;8335;42.646;23.380;2023-04-22T09:53:44;147947.63;;;25.85;29.01
8280;BME280;8335;42.646;23.380;2023-04-22T09:56:11;147816.88;;;25.32;28.36
8280;BME280;8335;42.646;23.380;2023-04-22T09:58:39;147815.63;;;25.31;27.00
8280;BME280;8335;42.646;23.380;2023-04-22T10:01:05;147662.28;;;24.69;27.75
8280;BME280;8335;42.646;23.380;2023-04-22T10:03:32;147375.91;;;23.53;31.06
8280;BME280;8335;42.646;23.380;2023-04-22T10:05:59;147006.97;;;22.03;33.93
8280;BME280;8335;42.646;23.380;2023-04-22T10:08:26;146920.47;;;21.68;35.67
8280;BME280;8335;42.646;23.380;2023-04-22T10:10:52;146894.13;;;21.57;33.57
8280;BME280;8335;42.646;23.380;2023-04-22T10:13:19;146822.66;;;21.28;33.90
8280;BME280;8335;42.646;23.380;2023-04-22T10:15:50;146598.34;;;20.37;34.18
8280;BME280;8335;42.646;23.380;2023-04-22T10:18:21;146592.06;;;20.34;34.72
8280;BME280;8335;42.646;23.380;2023-04-22T10:20:50;146608.34;;;20.41;34.69
8280;BME280;8335;42.646;23.380;2023-04-22T10:23:19;146583.31;;;20.31;34.72
8280;BME280;8335;42.646;23.380;2023-04-22T10:25:47;146564.53;;;20.23;33.64
8280;BME280;8335;42.646;23.380;2023-04-22T10:28:16;146555.75;;;20.20;33.58
8280;BME280;8335;42.646;23.380;2023-04-22T10:30:43;146598.34;;;20.37;33.40
8280;BME280;8335;42.646;23.380;2023-04-22T10:33:35;146647.22;;;20.57;33.15
8280;BME280;8335;42.646;23.380;2023-04-22T10:36:08;146510.69;;;20.01;34.24
8280;BME280;8335;42.646;23.380;2023-04-22T10:38:35;146479.38;;;19.89;35.29
8280;BME280;8335;42.646;23.380;2023-04-22T10:41:03;146274.06;;;19.05;37.16
8280;BME280;8335;42.646;23.380;2023-04-22T10:43:46;146321.63;;;19.24;36.46
8280;BME280;8335;42.646;23.380;2023-04-22T10:49:19;146384.16;;;19.50;36.25
8280;BME280;8335;42.646;23.380;2023-04-22T10:51:47;146399.19;;;19.56;34.60
8280;BME280;8335;42.646;23.380;2023-04-22T10:57:18;146485.63;;;19.91;34.46
8280;BME280;8335;42.646;23.380;2023-04-22T10:59:48;146554.50;;;20.19;35.02
8280;BME280;8335;42.646;23.380;2023-04-22T11:02:15;146515.69;;;20.03;34.70
8280;BME280;8335;42.646;23.380;2023-04-22T11:04:43;146458.09;;;19.80;35.16
8280;BME280;8335;42.646;23.380;2023-04-22T11:07:14;146356.66;;;19.39;34.11
8280;BME280;8335;42.646;23.380;2023-04-22T11:09:43;146352.91;;;19.37;34.79
8280;BME280;8335;42.646;23.380;2023-04-22T11:12:40;146405.53;;;19.59;34.30
8280;BME280;8335;42.646;23.380;2023-04-22T11:15:09;146335.41;;;19.30;33.48
8280;BME280;8335;42.646;23.380;2023-04-22T11:17:38;146389.22;;;19.52;34.05
8280;BME280;8335;42.646;23.380;2023-04-22T11:20:07;146260.28;;;19.00;36.45
8280;BME280;8335;42.646;23.380;2023-04-22T11:22:35;146156.38;;;18.57;37.60
8280;BME280;8335;42.646;23.380;2023-04-22T11:25:04;146097.63;;;18.33;39.88
8280;BME280;8335;42.646;23.380;2023-04-22T11:27:31;146003.88;;;17.95;38.71
8280;BME280;8335;42.646;23.380;2023-04-22T11:29:59;145996.34;;;17.92;39.51
8280;BME280;8335;42.646;23.380;2023-04-22T11:32:26;145996.34;;;17.92;40.28
8280;BME280;8335;42.646;23.380;2023-04-22T11:34:53;145961.34;;;17.78;42.09
8280;BME280;8335;42.646;23.380;2023-04-22T11:37:21;145943.81;;;17.71;41.67
8280;BME280;8335;42.646;23.380;2023-04-22T11:39:49;145917.56;;;17.60;42.24
8280;BME280;8335;42.646;23.380;2023-04-22T11:42:19;145892.53;;;17.50;43.34
8280;BME280;8335;42.646;23.380;2023-04-22T11:44:47;145865.06;;;17.39;43.65
8280;BME280;8335;42.646;23.380;2023-04-22T11:47:13;145877.56;;;17.44;44.37
8280;BME280;8335;42.646;23.380;2023-04-22T11:49:40;145895.06;;;17.51;43.80
8280;BME280;8335;42.646;23.380;2023-04-22T11:52:07;145833.81;;;17.26;44.23
8280;BME280;8335;42.646;23.380;2023-04-22T11:54:36;145781.34;;;17.04;45.22
8280;BME280;8335;42.646;23.380;2023-04-22T11:57:05;145737.63;;;16.87;44.11
8280;BME280;8335;42.646;23.380;2023-04-22T11:59:32;145746.34;;;16.90;46.26
8280;BME280;8335;42.646;23.380;2023-04-22T12:01:59;145781.34;;;17.04;45.13
8280;BME280;8335;42.646;23.380;2023-04-22T12:04:25;145756.38;;;16.94;44.70
8280;BME280;8335;42.646;23.380;2023-04-22T12:06:52;145693.84;;;16.69;45.67
8280;BME280;8335;42.646;23.380;2023-04-22T12:09:23;145620.16;;;16.39;45.50
8280;BME280;8335;42.646;23.380;2023-04-22T12:11:51;145637.66;;;16.46;47.26
8280;BME280;8335;42.646;23.380;2023-04-22T12:14:18;145632.66;;;16.44;47.85
8280;BME280;8335;42.646;23.380;2023-04-22T12:16:45;145630.13;;;16.43;49.06
8280;BME280;8335;42.646;23.380;2023-04-22T12:19:12;145657.63;;;16.54;49.68
8280;BME280;8335;42.646;23.380;2023-04-22T12:21:40;145680.09;;;16.63;49.64
8280;BME280;8335;42.646;23.380;2023-04-22T12:24:08;145717.59;;;16.78;50.88
8280;BME280;8335;42.646;23.380;2023-04-22T12:26:35;145668.88;;;16.59;47.75
8280;BME280;8335;42.646;23.380;2023-04-22T12:29:04;145707.63;;;16.74;47.81
8280;BME280;8335;42.646;23.380;2023-04-22T12:31:31;145727.63;;;16.83;49.44
8280;BME280;8335;42.646;23.380;2023-04-22T12:33:58;145771.38;;;17.00;48.26
8280;BME280;8335;42.646;23.380;2023-04-22T12:36:26;145785.06;;;17.06;47.40
8280;BME280;8335;42.646;23.380;2023-04-22T12:38:53;145760.09;;;16.96;48.29
8280;BME280;8335;42.646;23.380;2023-04-22T12:41:20;145785.06;;;17.06;48.07
8280;BME280;8335;42.646;23.380;2023-04-22T12:43:48;145771.38;;;17.00;50.09
8280;BME280;8335;42.646;23.380;2023-04-22T12:46:16;145682.56;;;16.64;48.12
8280;BME280;8335;42.646;23.380;2023-04-22T12:48:43;145732.59;;;16.85;50.03
8280;BME280;8335;42.646;23.380;2023-04-22T12:51:10;145692.59;;;16.68;50.19
8280;BME280;8335;42.646;23.380;2023-04-22T12:53:36;145638.88;;;16.46;50.73
8280;BME280;8335;42.646;23.380;2023-04-22T12:56:04;145607.66;;;16.34;52.11
8280;BME280;8335;42.646;23.380;2023-04-22T12:58:30;145610.16;;;16.35;52.66
8280;BME280;8335;42.646;23.380;2023-04-22T13:00:57;145592.66;;;16.28;53.33
8280;BME280;8335;42.646;23.380;2023-04-22T13:03:25;145570.22;;;16.18;53.77
8280;BME280;8335;42.646;23.380;2023-04-22T13:05:53;145567.72;;;16.17;55.40
8280;BME280;8335;42.646;23.380;2023-04-22T13:08:20;145580.22;;;16.22;54.01
8280;BME280;8335;42.646;23.380;2023-04-22T13:10:47;145588.94;;;16.26;53.75